Time;durP1;ratioP1;P1;durP2;ratioP2;P2;SDS_P1;SDS_P2;PMS_P1;PMS_P2;Temp;Humidity;BMP_temperature;BMP_pressure;BME280_temperature;BME280_humidity;BME280_pressure;Samples;Min_cycle;Max_cycle;Signal;HPM_P1;HPM_P2
2023/03/22 00:00:11;;;;;;;37.73;17.73;;;15.30;90.00;;;;;;6061883;23;20398;-77
2023/03/22 00:02:39;;;;;;;30.23;16.73;;;15.20;90.80;;;;;;6062628;23;20699;-77
2023/03/22 00:05:09;;;;;;;31.73;16.70;;;15.20;90.30;;;;;;6065089;23;20230;-77
2023/03/22 00:07:39;;;;;;;32.10;16.87;;;15.20;90.30;;;;;;6063877;23;20407;-77
2023/03/22 00:10:13;;;;;;;32.60;17.63;;;15.20;90.10;;;;;;6065837;23;20163;-77
2023/03/22 00:12:44;;;;;;;34.07;17.53;;;15.20;90.70;;;;;;6064136;23;20273;-77
2023/03/22 00:15:14;;;;;;;31.17;15.97;;;15.20;90.90;;;;;;6065948;23;20229;-77
2023/03/22 00:17:43;;;;;;;33.53;16.83;;;15.20;90.80;;;;;;6065412;23;20175;-77
2023/03/22 00:20:12;;;;;;;33.27;16.13;;;15.20;90.60;;;;;;6065167;23;20183;-77
2023/03/22 00:22:41;;;;;;;31.97;16.90;;;15.20;90.80;;;;;;6064232;23;20175;-78
2023/03/22 00:25:10;;;;;;;31.77;16.40;;;15.20;90.90;;;;;;6065674;23;20675;-78
2023/03/22 00:27:38;;;;;;;40.30;18.07;;;15.10;91.20;;;;;;6065782;23;20238;-77
2023/03/22 00:30:08;;;;;;;34.27;17.07;;;15.00;91.60;;;;;;6065757;23;20178;-78
2023/03/22 00:32:38;;;;;;;33.30;16.87;;;15.00;91.50;;;;;;6064685;23;20209;-77
2023/03/22 00:35:08;;;;;;;35.43;17.03;;;15.10;91.20;;;;;;6065409;23;20162;-77
2023/03/22 00:37:37;;;;;;;35.13;16.20;;;15.10;91.20;;;;;;6064951;23;20493;-78
2023/03/22 00:40:08;;;;;;;38.50;17.13;;;15.00;91.30;;;;;;6066437;23;20225;-78
2023/03/22 00:42:37;;;;;;;30.80;17.10;;;15.00;91.60;;;;;;6063933;23;20187;-77
2023/03/22 00:45:07;;;;;;;30.17;15.83;;;15.00;91.70;;;;;;6065837;23;20241;-78
2023/03/22 00:47:38;;;;;;;34.47;17.50;;;14.90;91.60;;;;;;6064970;23;20214;-78
2023/03/22 00:50:08;;;;;;;35.47;17.87;;;14.90;91.70;;;;;;6065208;23;20672;-78
2023/03/22 00:52:36;;;;;;;29.87;17.20;;;14.90;91.40;;;;;;6063805;23;20545;-78
2023/03/22 00:55:05;;;;;;;37.50;17.27;;;14.80;91.70;;;;;;6065279;23;20234;-78
2023/03/22 00:57:33;;;;;;;35.47;19.77;;;14.80;91.60;;;;;;6064561;23;20210;-77
2023/03/22 01:00:14;;;;;;;37.57;18.33;;;14.80;91.70;;;;;;6064892;23;20174;-77
2023/03/22 01:02:44;;;;;;;33.53;18.10;;;14.80;91.90;;;;;;6063422;23;20627;-79
2023/03/22 01:05:14;;;;;;;38.27;18.30;;;14.80;91.90;;;;;;6065585;23;20175;-78
2023/03/22 01:07:43;;;;;;;37.03;18.13;;;14.80;91.70;;;;;;6065808;23;20178;-78
2023/03/22 01:10:12;;;;;;;38.10;18.87;;;14.70;92.20;;;;;;6063678;23;20261;-78
2023/03/22 01:12:41;;;;;;;35.40;18.43;;;14.70;92.30;;;;;;6063986;23;20182;-77
2023/03/22 01:15:10;;;;;;;39.10;18.40;;;14.70;92.20;;;;;;6064617;23;20178;-78
2023/03/22 01:17:39;;;;;;;41.17;18.60;;;14.70;92.20;;;;;;6066194;23;20550;-78
2023/03/22 01:20:10;;;;;;;37.27;18.40;;;14.70;92.20;;;;;;6067509;23;20230;-77
2023/03/22 01:22:38;;;;;;;34.93;18.13;;;14.70;92.30;;;;;;6066919;23;20223;-78
2023/03/22 01:25:07;;;;;;;34.20;17.93;;;14.60;92.80;;;;;;6065193;23;20175;-78
2023/03/22 01:27:36;;;;;;;38.77;18.53;;;14.60;92.40;;;;;;6064787;23;20633;-77
2023/03/22 01:30:07;;;;;;;35.63;17.37;;;14.50;92.60;;;;;;6065996;23;20214;-77
2023/03/22 01:32:36;;;;;;;36.13;17.33;;;14.50;92.50;;;;;;6066015;23;20408;-78
2023/03/22 01:35:05;;;;;;;36.30;18.23;;;14.60;92.40;;;;;;6065276;23;20668;-77
2023/03/22 01:37:34;;;;;;;36.63;17.70;;;14.60;92.50;;;;;;6063918;23;20174;-78
2023/03/22 01:40:03;;;;;;;33.07;17.67;;;14.60;92.20;;;;;;6066705;23;20179;-77
2023/03/22 01:42:32;;;;;;;30.17;16.90;;;14.60;92.10;;;;;;6066848;23;20175;-75
2023/03/22 01:45:33;;;;;;;36.13;17.33;;;14.70;92.00;;;;;;6065423;23;20178;-77
2023/03/22 01:48:05;;;;;;;35.37;17.10;;;14.60;92.00;;;;;;6064947;23;20158;-77
2023/03/22 01:50:36;;;;;;;37.30;17.47;;;14.60;92.20;;;;;;6063342;23;20211;-77
2023/03/22 01:53:08;;;;;;;31.23;16.73;;;14.60;92.10;;;;;;6066459;23;20159;-76
2023/03/22 01:55:37;;;;;;;35.77;17.23;;;14.60;92.20;;;;;;6064566;23;20546;-78
2023/03/22 01:58:06;;;;;;;34.50;18.57;;;14.60;92.20;;;;;;6065689;23;20202;-77
2023/03/22 02:00:34;;;;;;;35.87;17.27;;;14.60;92.00;;;;;;6065574;23;20182;-77
2023/03/22 02:03:04;;;;;;;35.57;16.63;;;14.60;92.00;;;;;;6064870;23;20178;-78
2023/03/22 02:05:34;;;;;;;38.60;17.17;;;14.70;92.10;;;;;;6066332;23;20257;-77
2023/03/22 02:08:03;;;;;;;31.53;16.60;;;14.70;92.10;;;;;;6065079;23;20171;-77
2023/03/22 02:10:33;;;;;;;36.23;17.13;;;14.70;92.10;;;;;;6066810;23;20178;-77
2023/03/22 02:13:17;;;;;;;37.63;17.20;;;14.70;92.10;;;;;;6066819;23;20206;-76
2023/03/22 02:15:50;;;;;;;35.93;16.87;;;14.60;92.20;;;;;;6065510;23;20159;-77
2023/03/22 02:18:35;;;;;;;31.10;16.60;;;14.60;92.20;;;;;;6064602;23;20240;-76
2023/03/22 02:21:55;;;;;;;37.43;17.03;;;14.60;92.20;;;;;;6062854;23;20210;-76
2023/03/22 02:25:00;;;;;;;35.57;17.67;;;14.60;92.30;;;;;;6062154;23;20178;-76
2023/03/22 02:27:51;;;;;;;37.50;17.37;;;14.70;92.20;;;;;;6062922;23;20166;-76
2023/03/22 02:30:44;;;;;;;40.17;17.57;;;14.70;92.20;;;;;;6064285;23;20392;-77
2023/03/22 02:33:36;;;;;;;34.43;16.57;;;14.60;92.40;;;;;;6063304;23;20182;-77
2023/03/22 02:36:21;;;;;;;33.40;16.30;;;14.60;92.50;;;;;;6066001;23;20242;-77
2023/03/22 02:39:14;;;;;;;33.60;17.00;;;14.60;92.70;;;;;;6061687;23;20163;-77
2023/03/22 02:42:04;;;;;;;33.23;16.93;;;14.60;92.60;;;;;;6064802;23;20182;-76
2023/03/22 02:44:41;;;;;;;36.90;16.53;;;14.50;92.60;;;;;;6065240;23;20166;-77
2023/03/22 02:47:19;;;;;;;35.53;17.77;;;14.50;92.50;;;;;;6065815;23;20214;-76
2023/03/22 02:49:54;;;;;;;33.97;17.43;;;14.50;92.60;;;;;;6063478;23;20163;-77
2023/03/22 02:52:32;;;;;;;34.37;17.77;;;14.50;92.80;;;;;;6065164;23;20686;-77
2023/03/22 02:55:09;;;;;;;29.60;16.47;;;14.50;92.80;;;;;;6062494;23;20225;-78
2023/03/22 02:57:44;;;;;;;36.97;17.33;;;14.50;93.10;;;;;;6061799;23;20206;-78
2023/03/22 03:00:16;;;;;;;35.23;16.77;;;14.50;92.80;;;;;;6063078;23;20441;-78
2023/03/22 03:02:47;;;;;;;36.30;17.00;;;14.50;92.80;;;;;;6064516;23;20214;-76
2023/03/22 03:05:18;;;;;;;33.40;16.67;;;14.40;93.20;;;;;;6065031;23;20218;-76
2023/03/22 03:07:50;;;;;;;32.53;16.13;;;14.50;93.00;;;;;;6063781;23;20167;-77
2023/03/22 03:10:22;;;;;;;34.50;16.50;;;14.50;93.00;;;;;;6061609;23;20189;-76
2023/03/22 03:12:50;;;;;;;36.63;18.03;;;14.40;93.10;;;;;;6063260;23;20222;-77
2023/03/22 03:15:22;;;;;;;30.33;15.60;;;14.40;93.20;;;;;;6062593;23;20531;-76
2023/03/22 03:18:08;;;;;;;31.40;16.17;;;14.40;93.20;;;;;;6063693;23;20190;-77
2023/03/22 03:20:45;;;;;;;35.23;17.37;;;14.30;93.40;;;;;;6065895;23;20166;-77
2023/03/22 03:23:24;;;;;;;31.20;14.60;;;14.20;93.40;;;;;;6065103;23;20213;-77
2023/03/22 03:26:02;;;;;;;31.87;16.57;;;14.10;93.30;;;;;;6064598;23;20158;-78
2023/03/22 03:28:38;;;;;;;34.95;16.83;;;14.10;93.40;;;;;;6065426;23;20388;-78
2023/03/22 03:31:16;;;;;;;35.87;18.20;;;14.00;93.60;;;;;;6066137;23;20161;-77
2023/03/22 03:33:53;;;;;;;34.63;17.20;;;14.00;93.50;;;;;;6065287;23;20210;-78
2023/03/22 03:36:23;;;;;;;32.67;15.97;;;14.10;93.50;;;;;;6065848;23;20162;-78
2023/03/22 03:38:54;;;;;;;34.03;15.90;;;14.00;93.50;;;;;;6064695;23;20163;-77
2023/03/22 03:41:27;;;;;;;31.33;15.50;;;14.00;93.50;;;;;;6064746;23;20186;-78
2023/03/22 03:43:57;;;;;;;35.27;17.40;;;14.00;93.40;;;;;;6065484;23;20636;-79
2023/03/22 03:46:25;;;;;;;29.23;15.87;;;14.00;93.50;;;;;;6065890;23;20209;-79
2023/03/22 03:48:57;;;;;;;32.97;15.47;;;14.00;93.40;;;;;;6064945;23;20182;-78
2023/03/22 03:51:27;;;;;;;30.97;15.13;;;14.00;93.30;;;;;;6064875;23;20162;-78
2023/03/22 03:53:56;;;;;;;29.83;15.27;;;14.00;93.40;;;;;;6063829;23;20170;-78
2023/03/22 03:56:26;;;;;;;34.90;16.07;;;14.00;93.50;;;;;;6064665;23;20205;-79
2023/03/22 03:58:54;;;;;;;36.03;15.47;;;14.00;93.40;;;;;;6065318;23;20170;-78
2023/03/22 04:01:22;;;;;;;30.87;15.27;;;14.00;93.60;;;;;;6065769;23;20285;-79
2023/03/22 04:03:54;;;;;;;33.00;15.47;;;14.00;93.50;;;;;;6065134;23;20549;-80
2023/03/22 04:06:22;;;;;;;33.83;14.70;;;14.00;93.60;;;;;;6063709;23;20512;-79
2023/03/22 04:08:52;;;;;;;28.67;15.33;;;14.00;93.60;;;;;;6066255;23;20550;-79
2023/03/22 04:11:21;;;;;;;29.97;15.40;;;14.00;93.70;;;;;;6066466;23;20182;-79
2023/03/22 04:13:50;;;;;;;28.30;14.90;;;13.90;93.70;;;;;;6063246;23;20206;-80
2023/03/22 04:16:19;;;;;;;33.07;15.73;;;14.00;93.60;;;;;;6064790;23;20190;-79
2023/03/22 04:18:47;;;;;;;29.27;16.00;;;13.90;93.70;;;;;;6064478;23;20179;-79
2023/03/22 04:21:16;;;;;;;29.77;14.70;;;13.90;93.60;;;;;;6065129;23;20178;-80
2023/03/22 04:23:45;;;;;;;32.57;15.77;;;13.90;93.60;;;;;;6064420;23;20238;-76
2023/03/22 04:26:14;;;;;;;30.37;15.03;;;13.90;93.50;;;;;;6062879;23;20230;-79
2023/03/22 04:28:42;;;;;;;33.57;15.00;;;14.00;93.50;;;;;;6065159;23;20238;-80
2023/03/22 04:31:12;;;;;;;33.23;14.73;;;14.00;93.40;;;;;;6064501;23;20182;-80
2023/03/22 04:33:45;;;;;;;37.87;14.63;;;14.00;93.20;;;;;;6065553;23;20201;-80
2023/03/22 04:36:16;;;;;;;33.33;16.03;;;14.00;93.20;;;;;;6063267;23;20182;-79
2023/03/22 04:38:47;;;;;;;30.27;14.63;;;14.00;93.20;;;;;;6063812;23;20559;-79
2023/03/22 04:41:16;;;;;;;28.00;14.30;;;14.10;93.10;;;;;;6064344;23;20214;-80
2023/03/22 04:43:45;;;;;;;27.57;14.77;;;14.10;93.00;;;;;;6065563;23;20185;-80
2023/03/22 04:46:15;;;;;;;31.73;15.93;;;14.10;93.00;;;;;;6064088;23;20175;-79
2023/03/22 04:48:44;;;;;;;33.00;15.57;;;14.10;93.00;;;;;;6063358;23;20206;-79
2023/03/22 04:51:12;;;;;;;25.57;13.03;;;14.10;93.00;;;;;;6063197;23;20182;-80
2023/03/22 04:53:41;;;;;;;27.83;14.07;;;14.10;92.90;;;;;;6064480;23;20189;-80
2023/03/22 04:56:11;;;;;;;31.07;14.87;;;14.20;92.90;;;;;;6063610;23;20657;-79
2023/03/22 04:58:41;;;;;;;28.80;14.73;;;14.20;92.90;;;;;;6064079;23;20289;-79
2023/03/22 05:01:10;;;;;;;34.77;15.43;;;14.20;92.80;;;;;;6061430;23;20182;-79
2023/03/22 05:03:41;;;;;;;31.20;15.73;;;14.20;92.80;;;;;;6065286;23;20716;-79
2023/03/22 05:06:10;;;;;;;27.13;14.13;;;14.20;92.80;;;;;;6065767;23;20158;-80
2023/03/22 05:08:38;;;;;;;31.17;14.83;;;14.20;92.70;;;;;;6065907;23;20213;-79
2023/03/22 05:11:10;;;;;;;33.30;15.40;;;14.20;92.70;;;;;;6064795;23;20182;-78
2023/03/22 05:13:38;;;;;;;31.77;15.40;;;14.20;92.60;;;;;;6065641;23;20166;-80
2023/03/22 05:16:08;;;;;;;28.53;14.50;;;14.20;92.70;;;;;;6063754;23;20222;-78
2023/03/22 05:18:44;;;;;;;32.40;15.73;;;14.30;92.70;;;;;;6062834;23;20175;-78
2023/03/22 05:21:16;;;;;;;27.93;14.80;;;14.30;92.80;;;;;;6065023;23;20493;-80
2023/03/22 05:23:45;;;;;;;28.90;14.43;;;14.30;92.60;;;;;;6066135;23;20222;-80
2023/03/22 05:26:15;;;;;;;27.90;15.17;;;14.30;92.60;;;;;;6064387;23;20538;-79
2023/03/22 05:28:44;;;;;;;31.13;14.60;;;14.30;92.60;;;;;;6064638;23;20179;-79
2023/03/22 05:31:14;;;;;;;35.10;16.13;;;14.30;92.70;;;;;;6059006;23;20517;-79
2023/03/22 05:33:42;;;;;;;31.60;15.07;;;14.30;92.70;;;;;;6063699;23;20258;-80
2023/03/22 05:36:13;;;;;;;30.90;15.37;;;14.30;92.60;;;;;;6066681;23;20249;-78
2023/03/22 05:38:41;;;;;;;29.67;15.20;;;14.30;92.70;;;;;;6065683;23;20628;-78
2023/03/22 05:41:09;;;;;;;30.03;15.57;;;14.40;92.70;;;;;;6063556;23;20175;-79
2023/03/22 05:43:38;;;;;;;32.53;14.67;;;14.40;92.70;;;;;;6066314;23;20174;-80
2023/03/22 05:46:07;;;;;;;38.30;15.73;;;14.30;92.70;;;;;;6064796;23;20226;-78
2023/03/22 05:48:35;;;;;;;26.67;15.23;;;14.30;92.90;;;;;;6063989;23;20179;-79
2023/03/22 05:51:06;;;;;;;30.10;14.10;;;14.30;92.80;;;;;;6064546;23;20179;-78
2023/03/22 05:53:36;;;;;;;29.87;14.43;;;14.30;92.80;;;;;;6065425;23;20586;-79
2023/03/22 05:56:08;;;;;;;28.60;13.67;;;14.40;92.70;;;;;;6066368;23;20242;-78
2023/03/22 05:58:38;;;;;;;28.07;13.53;;;14.40;92.70;;;;;;6063366;23;20700;-78
2023/03/22 06:01:09;;;;;;;28.70;15.65;;;14.40;92.60;;;;;;6066593;23;20427;-79
2023/03/22 06:03:38;;;;;;;27.77;14.23;;;14.50;92.80;;;;;;6067783;23;20226;-78
2023/03/22 06:06:09;;;;;;;27.40;13.43;;;14.50;92.70;;;;;;6068970;23;20226;-82
2023/03/22 06:08:39;;;;;;;22.53;12.67;;;14.60;92.60;;;;;;6069012;23;20186;-78
2023/03/22 06:11:08;;;;;;;28.33;13.87;;;14.60;92.50;;;;;;6065006;23;20179;-78
2023/03/22 06:13:37;;;;;;;24.48;12.93;;;14.60;92.40;;;;;;6067155;23;20411;-80
2023/03/22 06:16:06;;;;;;;28.80;14.20;;;14.60;92.30;;;;;;6068662;23;20319;-81
2023/03/22 06:18:35;;;;;;;21.83;12.00;;;14.70;92.30;;;;;;6067716;23;20174;-79
2023/03/22 06:21:03;;;;;;;25.23;13.33;;;14.70;92.20;;;;;;6063896;23;20482;-79
2023/03/22 06:23:31;;;;;;;28.60;11.73;;;14.70;92.10;;;;;;6066960;23;20637;-79
2023/03/22 06:26:01;;;;;;;25.80;12.97;;;14.70;92.00;;;;;;6069196;23;20175;-79
2023/03/22 06:28:29;;;;;;;24.77;14.38;;;14.70;92.10;;;;;;6065900;23;20500;-79
2023/03/22 06:30:58;;;;;;;25.87;12.97;;;14.80;92.30;;;;;;6063923;23;20189;-78
2023/03/22 06:33:26;;;;;;;27.00;12.83;;;14.80;92.30;;;;;;6066805;23;20178;-78
2023/03/22 06:35:55;;;;;;;24.47;13.17;;;14.80;92.20;;;;;;6065292;23;20194;-79
2023/03/22 06:38:23;;;;;;;23.50;13.43;;;14.90;92.20;;;;;;6066829;23;20178;-80
2023/03/22 06:40:51;;;;;;;22.20;11.67;;;14.90;92.10;;;;;;6067069;23;20178;-79
2023/03/22 06:43:21;;;;;;;23.77;13.17;;;14.90;91.90;;;;;;6069054;23;20220;-81
2023/03/22 06:45:49;;;;;;;21.87;12.30;;;14.90;91.80;;;;;;6065773;23;20253;-78
2023/03/22 06:48:18;;;;;;;24.47;12.70;;;15.00;91.70;;;;;;6064682;23;20181;-79
2023/03/22 06:50:46;;;;;;;21.93;11.40;;;15.00;91.60;;;;;;6066027;23;20210;-79
2023/03/22 06:53:14;;;;;;;22.17;11.73;;;15.00;91.60;;;;;;6067907;23;20230;-79
2023/03/22 06:55:43;;;;;;;24.50;13.03;;;15.00;91.50;;;;;;6066976;23;20632;-79
2023/03/22 06:58:11;;;;;;;22.60;11.57;;;15.00;91.50;;;;;;6067029;23;20265;-79
2023/03/22 07:00:41;;;;;;;21.70;12.20;;;15.00;91.30;;;;;;6067598;23;20174;-80
2023/03/22 07:03:09;;;;;;;22.40;12.43;;;15.00;91.20;;;;;;6066876;23;20179;-79
2023/03/22 07:05:38;;;;;;;22.10;12.30;;;15.00;91.10;;;;;;6066666;23;20466;-79
2023/03/22 07:08:06;;;;;;;21.77;11.93;;;15.00;91.00;;;;;;6067881;23;20178;-79
2023/03/22 07:10:35;;;;;;;22.00;11.80;;;15.10;91.00;;;;;;6065957;23;20179;-78
2023/03/22 07:13:03;;;;;;;25.50;11.60;;;15.10;91.10;;;;;;6067322;23;20511;-79
2023/03/22 07:15:33;;;;;;;25.80;12.70;;;15.10;91.00;;;;;;6067053;23;20628;-79
2023/03/22 07:18:03;;;;;;;25.13;12.43;;;15.10;90.90;;;;;;6066190;23;20195;-79
2023/03/22 07:20:35;;;;;;;21.77;11.97;;;15.20;91.00;;;;;;6063401;23;20163;-78
2023/03/22 07:23:04;;;;;;;19.17;11.23;;;15.20;91.10;;;;;;6067042;23;20159;-79
2023/03/22 07:25:32;;;;;;;22.97;11.07;;;15.20;91.00;;;;;;6066519;23;20179;-80
2023/03/22 07:28:01;;;;;;;21.70;12.63;;;15.20;91.00;;;;;;6066713;23;20472;-79
2023/03/22 07:30:30;;;;;;;22.87;12.13;;;15.30;91.00;;;;;;6066119;23;20186;-79
2023/03/22 07:32:58;;;;;;;22.67;11.43;;;15.30;91.00;;;;;;6064334;23;20178;-80
2023/03/22 07:35:28;;;;;;;24.50;12.43;;;15.40;91.00;;;;;;6063860;23;20182;-78
2023/03/22 07:37:56;;;;;;;26.07;12.37;;;15.40;90.90;;;;;;6062672;23;20278;-79
2023/03/22 07:40:25;;;;;;;25.00;12.37;;;15.40;90.70;;;;;;6064841;23;20249;-77
2023/03/22 07:42:54;;;;;;;24.07;12.33;;;15.40;90.70;;;;;;6065175;23;20246;-78
2023/03/22 07:45:23;;;;;;;19.53;11.43;;;15.40;90.70;;;;;;6065643;23;20253;-78
2023/03/22 07:47:52;;;;;;;20.80;11.77;;;15.40;90.70;;;;;;6065886;23;20174;-78
2023/03/22 07:50:20;;;;;;;20.90;11.70;;;15.40;90.60;;;;;;6065863;23;20230;-78
2023/03/22 07:52:50;;;;;;;22.07;11.57;;;15.40;90.50;;;;;;6065274;23;20186;-77
2023/03/22 07:55:18;;;;;;;24.90;11.83;;;15.40;90.50;;;;;;6065886;23;20186;-78
2023/03/22 07:57:47;;;;;;;22.30;12.03;;;15.40;90.50;;;;;;6061117;23;20718;-77
2023/03/22 08:00:16;;;;;;;19.70;11.37;;;15.50;90.50;;;;;;6063196;23;20197;-77
2023/03/22 08:02:45;;;;;;;18.30;10.13;;;15.50;90.40;;;;;;6063619;23;20179;-78
2023/03/22 08:05:13;;;;;;;21.90;11.87;;;15.50;90.40;;;;;;6064636;23;20201;-77
2023/03/22 08:07:42;;;;;;;20.77;10.37;;;15.50;90.30;;;;;;6062751;23;20585;-78
2023/03/22 08:10:12;;;;;;;19.63;11.93;;;15.50;90.30;;;;;;6064323;23;20178;-76
2023/03/22 08:12:40;;;;;;;20.53;11.77;;;15.50;90.30;;;;;;6063129;23;20229;-78
2023/03/22 08:15:10;;;;;;;20.20;11.87;;;15.50;90.30;;;;;;6061915;23;20187;-77
2023/03/22 08:17:39;;;;;;;20.83;12.20;;;15.50;90.30;;;;;;6061361;23;20259;-77
2023/03/22 08:20:09;;;;;;;21.50;12.00;;;15.50;90.30;;;;;;6063029;23;20636;-77
2023/03/22 08:22:43;;;;;;;24.30;12.33;;;15.50;90.30;;;;;;6061488;23;20567;-78
2023/03/22 08:25:13;;;;;;;22.10;11.03;;;15.50;90.30;;;;;;6063135;23;20159;-76
2023/03/22 08:27:41;;;;;;;23.17;12.47;;;15.40;90.30;;;;;;6063523;23;20178;-77
2023/03/22 08:30:11;;;;;;;22.90;12.80;;;15.40;90.50;;;;;;6061986;23;20699;-77
2023/03/22 08:32:39;;;;;;;26.20;12.93;;;15.40;90.50;;;;;;6063543;23;20640;-77
2023/03/22 08:35:09;;;;;;;24.67;12.97;;;15.40;90.50;;;;;;6063575;23;20377;-76
2023/03/22 08:37:38;;;;;;;20.80;11.90;;;15.40;90.80;;;;;;6063835;23;20253;-77
2023/03/22 08:40:09;;;;;;;21.60;12.50;;;15.30;90.80;;;;;;6062348;23;20178;-76
2023/03/22 08:42:39;;;;;;;23.07;11.93;;;15.30;91.20;;;;;;6063100;23;20163;-76
2023/03/22 08:45:09;;;;;;;23.17;12.33;;;15.30;90.80;;;;;;6062290;23;20189;-78
2023/03/22 08:47:37;;;;;;;19.17;11.10;;;15.30;90.80;;;;;;6063873;23;20163;-77
2023/03/22 08:50:06;;;;;;;20.37;12.73;;;15.30;90.70;;;;;;6065232;23;20246;-77
2023/03/22 08:52:35;;;;;;;25.30;12.50;;;15.30;90.70;;;;;;6065310;23;20704;-75
2023/03/22 08:55:04;;;;;;;22.17;12.77;;;15.30;90.70;;;;;;6066135;23;20178;-77
2023/03/22 08:57:32;;;;;;;22.37;12.13;;;15.40;90.70;;;;;;6064240;23;20636;-77
2023/03/22 09:00:05;;;;;;;20.97;11.93;;;15.30;90.70;;;;;;6063203;23;20178;-76
2023/03/22 09:02:33;;;;;;;21.60;12.50;;;15.30;90.60;;;;;;6064152;23;20660;-77
2023/03/22 09:05:02;;;;;;;23.83;13.03;;;15.30;90.60;;;;;;6064359;23;20182;-77
2023/03/22 09:07:30;;;;;;;25.73;13.67;;;15.30;90.60;;;;;;6065207;23;20179;-77
2023/03/22 09:09:58;;;;;;;23.60;13.10;;;15.30;90.70;;;;;;6065394;23;20933;-77
2023/03/22 09:12:28;;;;;;;23.47;13.03;;;15.30;90.60;;;;;;6065566;23;20178;-76
2023/03/22 09:14:56;;;;;;;24.87;13.30;;;15.30;90.50;;;;;;6064650;23;20281;-76
2023/03/22 09:17:26;;;;;;;23.27;13.77;;;15.30;90.50;;;;;;6065237;23;20194;-77
2023/03/22 09:19:54;;;;;;;24.40;13.43;;;15.30;90.60;;;;;;6066854;23;20242;-77
2023/03/22 09:22:39;;;;;;;21.40;12.10;;;15.30;90.60;;;;;;6064923;23;20163;-78
2023/03/22 09:25:08;;;;;;;26.93;13.53;;;15.30;90.50;;;;;;6067319;23;20174;-77
2023/03/22 09:27:39;;;;;;;24.47;13.87;;;15.30;90.80;;;;;;6063479;23;20159;-77
2023/03/22 09:30:10;;;;;;;25.97;13.53;;;15.30;90.50;;;;;;6065911;23;20206;-77
2023/03/22 09:32:39;;;;;;;23.93;13.33;;;15.30;90.60;;;;;;6064198;23;20217;-76
2023/03/22 09:35:08;;;;;;;27.23;14.67;;;15.40;90.50;;;;;;6068892;23;20632;-76
2023/03/22 09:37:37;;;;;;;26.73;14.77;;;15.40;90.50;;;;;;6067398;23;20194;-76
2023/03/22 09:40:07;;;;;;;28.37;15.40;;;15.40;90.50;;;;;;6066968;23;20183;-77
2023/03/22 09:42:38;;;;;;;26.10;13.70;;;15.40;90.60;;;;;;6066703;23;20218;-77
2023/03/22 09:45:13;;;;;;;26.70;15.43;;;15.40;90.50;;;;;;6068650;23;20167;-77
2023/03/22 09:47:46;;;;;;;25.70;14.13;;;15.40;90.50;;;;;;6067718;23;20162;-78
2023/03/22 09:50:19;;;;;;;27.97;15.30;;;15.50;90.50;;;;;;6068542;23;20170;-77
2023/03/22 09:52:48;;;;;;;27.23;14.57;;;15.40;90.50;;;;;;6066494;23;20166;-78
2023/03/22 09:55:22;;;;;;;25.73;14.33;;;15.40;90.40;;;;;;6069711;23;20242;-77
2023/03/22 09:57:58;;;;;;;27.13;14.70;;;15.50;90.50;;;;;;6067467;23;20206;-76
2023/03/22 10:00:37;;;;;;;24.73;14.20;;;15.50;90.40;;;;;;6066441;23;20604;-77
2023/03/22 10:03:19;;;;;;;26.40;15.20;;;15.50;90.40;;;;;;6066113;23;20162;-77
2023/03/22 10:05:53;;;;;;;26.07;14.20;;;15.50;90.50;;;;;;6065625;23;20218;-79
2023/03/22 10:08:45;;;;;;;30.93;14.80;;;15.50;90.50;;;;;;6067019;23;20159;-77
2023/03/22 10:11:26;;;;;;;25.90;14.70;;;15.50;90.50;;;;;;6066370;23;20181;-79
2023/03/22 10:14:02;;;;;;;26.90;15.17;;;15.50;90.90;;;;;;6066424;23;20218;-79
2023/03/22 10:16:34;;;;;;;25.23;15.47;;;15.60;90.50;;;;;;6065339;23;20163;-79
2023/03/22 10:19:12;;;;;;;28.90;14.33;;;15.60;90.50;;;;;;6064968;23;20186;-79
2023/03/22 10:21:41;;;;;;;32.23;15.73;;;15.60;90.50;;;;;;6064361;23;20305;-79
2023/03/22 10:24:16;;;;;;;27.47;15.10;;;15.60;90.50;;;;;;6063527;23;20242;-78
2023/03/22 10:26:47;;;;;;;28.27;15.87;;;15.60;90.50;;;;;;6064808;23;20166;-78
2023/03/22 10:29:22;;;;;;;31.90;16.40;;;15.70;90.50;;;;;;6066558;23;20159;-78
2023/03/22 10:31:50;;;;;;;28.23;15.77;;;15.70;90.50;;;;;;6062960;23;20162;-78
2023/03/22 10:34:26;;;;;;;30.60;16.07;;;15.80;90.40;;;;;;6066270;23;20257;-79
2023/03/22 10:36:55;;;;;;;30.73;16.10;;;15.80;90.40;;;;;;6063788;23;20162;-77
2023/03/22 10:39:30;;;;;;;32.27;16.60;;;15.80;90.40;;;;;;6063743;23;20226;-77
2023/03/22 10:42:01;;;;;;;32.33;16.83;;;15.90;90.40;;;;;;6067440;23;20246;-77
2023/03/22 10:44:34;;;;;;;30.30;16.93;;;15.90;90.30;;;;;;6067625;23;20166;-78
2023/03/22 10:47:06;;;;;;;31.33;15.83;;;15.90;90.20;;;;;;6067852;23;20159;-78
2023/03/22 10:49:42;;;;;;;30.47;16.80;;;15.90;90.00;;;;;;6066334;23;20162;-78
2023/03/22 10:52:24;;;;;;;29.63;15.67;;;16.00;90.00;;;;;;6067670;23;20201;-77
2023/03/22 10:54:54;;;;;;;30.47;16.57;;;16.00;90.00;;;;;;6066688;23;20162;-77
2023/03/22 10:57:27;;;;;;;30.17;15.77;;;16.10;89.80;;;;;;6066073;23;20209;-77
2023/03/22 10:59:56;;;;;;;29.53;15.63;;;16.10;89.50;;;;;;6065734;23;20194;-79
2023/03/22 11:02:27;;;;;;;28.70;16.03;;;16.10;89.30;;;;;;6068638;23;20186;-79
2023/03/22 11:04:59;;;;;;;32.97;16.67;;;16.10;88.90;;;;;;6065442;23;20175;-79
2023/03/22 11:07:34;;;;;;;32.20;15.27;;;16.20;89.00;;;;;;6066660;23;20218;-78
2023/03/22 11:10:27;;;;;;;28.57;14.83;;;16.20;88.90;;;;;;6067131;23;20159;-79
2023/03/22 11:13:11;;;;;;;29.03;15.80;;;16.20;88.80;;;;;;6063027;23;20213;-78
2023/03/22 11:15:41;;;;;;;30.37;17.10;;;16.20;88.80;;;;;;6067416;23;20245;-78
2023/03/22 11:18:14;;;;;;;33.53;16.73;;;16.20;88.80;;;;;;6067012;23;20163;-79
2023/03/22 11:20:55;;;;;;;32.20;16.83;;;16.20;88.90;;;;;;6066523;23;20600;-78
2023/03/22 11:23:25;;;;;;;27.43;15.13;;;16.20;89.10;;;;;;6066139;23;20233;-79
2023/03/22 11:25:57;;;;;;;28.70;16.43;;;16.30;89.10;;;;;;6066561;23;20694;-78
2023/03/22 11:28:28;;;;;;;33.80;15.80;;;16.30;89.30;;;;;;6065731;23;20159;-77
2023/03/22 11:31:03;;;;;;;30.67;15.77;;;16.30;89.10;;;;;;6067953;23;20158;-79
2023/03/22 11:33:31;;;;;;;34.27;17.57;;;16.30;89.00;;;;;;6066868;23;20666;-79
2023/03/22 11:36:04;;;;;;;30.33;17.23;;;16.30;89.00;;;;;;6067763;23;20648;-79
2023/03/22 11:38:37;;;;;;;30.63;16.93;;;16.30;89.00;;;;;;6065342;23;20167;-79
2023/03/22 11:41:21;;;;;;;30.17;16.20;;;16.40;89.10;;;;;;6066856;23;20503;-79
2023/03/22 11:43:53;;;;;;;33.43;16.97;;;16.40;89.00;;;;;;6066501;23;20166;-78
2023/03/22 11:46:22;;;;;;;30.00;15.90;;;16.40;88.90;;;;;;6065364;23;20727;-79
2023/03/22 11:48:52;;;;;;;34.13;17.47;;;16.40;88.80;;;;;;6064715;23;20179;-77
2023/03/22 11:51:29;;;;;;;30.23;16.87;;;16.50;88.70;;;;;;6068263;23;20246;-76
2023/03/22 11:54:06;;;;;;;30.93;16.60;;;16.40;88.60;;;;;;6068239;23;20162;-75
2023/03/22 11:56:39;;;;;;;32.10;16.47;;;16.50;88.60;;;;;;6066480;23;20237;-78
2023/03/22 11:59:12;;;;;;;30.57;16.70;;;16.50;88.60;;;;;;6063840;23;20183;-77
2023/03/22 12:01:45;;;;;;;43.80;16.80;;;16.50;88.40;;;;;;6064478;23;20170;-78
2023/03/22 12:04:19;;;;;;;28.73;16.53;;;16.50;88.50;;;;;;6066352;23;20163;-77
2023/03/22 12:06:52;;;;;;;34.13;17.53;;;16.60;88.50;;;;;;6064806;23;20487;-77
2023/03/22 12:09:28;;;;;;;32.70;18.00;;;16.60;88.50;;;;;;6065512;23;20166;-79
2023/03/22 12:11:59;;;;;;;29.43;16.80;;;16.60;88.60;;;;;;6065925;23;20218;-78
2023/03/22 12:14:33;;;;;;;31.97;16.63;;;16.60;88.50;;;;;;6066945;23;20195;-78
2023/03/22 12:17:07;;;;;;;27.07;15.47;;;16.70;88.30;;;;;;6065560;23;20620;-78
2023/03/22 12:19:58;;;;;;;32.00;16.23;;;16.70;88.30;;;;;;6063819;23;20179;-77
2023/03/22 12:22:31;;;;;;;37.60;17.77;;;16.80;88.30;;;;;;6066332;23;20166;-78
2023/03/22 12:25:01;;;;;;;30.93;16.50;;;16.80;88.30;;;;;;6065748;23;20629;-77
2023/03/22 12:27:34;;;;;;;27.47;15.87;;;16.80;88.00;;;;;;6066346;23;20632;-77
2023/03/22 12:30:07;;;;;;;29.07;15.33;;;16.80;87.90;;;;;;6066086;23;20214;-78
2023/03/22 12:32:40;;;;;;;32.03;14.87;;;16.80;87.80;;;;;;6065441;23;20171;-75
2023/03/22 12:35:15;;;;;;;29.80;15.47;;;16.80;87.70;;;;;;6066724;23;20182;-78
2023/03/22 12:37:50;;;;;;;26.17;14.43;;;16.80;87.40;;;;;;6065431;23;20608;-76
2023/03/22 12:40:25;;;;;;;29.63;14.77;;;16.90;87.30;;;;;;6065767;23;20541;-77
2023/03/22 12:43:07;;;;;;;28.33;15.87;;;16.90;87.20;;;;;;6066443;23;20159;-77
2023/03/22 12:45:39;;;;;;;28.03;15.63;;;16.90;86.90;;;;;;6066879;23;20166;-79
2023/03/22 12:48:15;;;;;;;27.80;15.57;;;16.90;86.90;;;;;;6066426;23;20163;-78
2023/03/22 12:50:50;;;;;;;32.40;15.17;;;16.90;86.70;;;;;;6066572;23;20597;-78